Time;durP1;ratioP1;P1;durP2;ratioP2;P2;SDS_P1;SDS_P2;PMS_P1;PMS_P2;Temp;Humidity;BMP_temperature;BMP_pressure;BME280_temperature;BME280_humidity;BME280_pressure;Samples;Min_cycle;Max_cycle;Signal;HPM_P1;HPM_P2
2023/05/03 00:00:20;;;;;;;6.32;4.07;;;6.00;99.90;;;;;;5097343;28;20497;-36
2023/05/03 00:02:45;;;;;;;9.80;4.32;;;6.00;99.90;;;;;;5097089;28;20123;-36
2023/05/03 00:05:12;;;;;;;5.82;4.30;;;6.10;99.90;;;;;;5096027;28;20120;-36
2023/05/03 00:07:39;;;;;;;8.63;4.13;;;6.10;99.90;;;;;;5097642;28;20044;-38
2023/05/03 00:10:05;;;;;;;6.70;4.07;;;6.20;99.90;;;;;;5096867;28;20116;-39
2023/05/03 00:12:31;;;;;;;7.65;4.25;;;6.20;99.90;;;;;;5096691;28;20223;-33
2023/05/03 00:14:57;;;;;;;5.47;3.72;;;6.20;99.90;;;;;;5096147;28;20060;-35
2023/05/03 00:17:22;;;;;;;7.40;3.70;;;6.20;99.90;;;;;;5083483;28;20415;-38
2023/05/03 00:19:48;;;;;;;7.30;3.80;;;6.20;99.90;;;;;;5096509;28;20577;-39
2023/05/03 00:22:14;;;;;;;6.57;3.38;;;6.30;99.90;;;;;;5096535;28;20051;-38
2023/05/03 00:24:40;;;;;;;6.93;3.55;;;6.20;99.90;;;;;;5097176;28;20047;-37
2023/05/03 00:27:05;;;;;;;4.35;3.15;;;6.20;99.90;;;;;;5097155;28;20050;-37
2023/05/03 00:29:31;;;;;;;10.82;3.90;;;6.20;99.90;;;;;;5096536;28;20078;-33
2023/05/03 00:31:58;;;;;;;6.28;3.47;;;6.20;99.90;;;;;;5081447;28;20084;-36
2023/05/03 00:34:24;;;;;;;5.55;3.30;;;6.20;99.90;;;;;;5096903;28;20481;-34
2023/05/03 00:36:50;;;;;;;9.88;3.47;;;6.10;99.90;;;;;;5097048;28;20560;-36
2023/05/03 00:39:16;;;;;;;7.57;3.08;;;6.00;99.90;;;;;;5095922;28;20065;-37
2023/05/03 00:41:41;;;;;;;6.95;3.50;;;6.00;99.90;;;;;;5096094;28;20205;-37
2023/05/03 00:44:07;;;;;;;5.32;4.03;;;5.90;99.90;;;;;;5095789;28;20496;-36
2023/05/03 00:46:33;;;;;;;6.47;4.38;;;5.90;99.90;;;;;;5078088;28;20123;-40
2023/05/03 00:48:59;;;;;;;6.90;5.30;;;5.90;99.90;;;;;;5095590;28;20070;-37
2023/05/03 00:51:26;;;;;;;7.05;4.93;;;5.80;99.90;;;;;;5096432;28;20505;-36
2023/05/03 00:53:52;;;;;;;6.43;4.10;;;5.70;99.90;;;;;;5095836;28;20092;-38
2023/05/03 00:56:25;;;;;;;5.97;4.18;;;5.70;99.90;;;;;;5096629;28;20047;-36
2023/05/03 00:58:51;;;;;;;8.13;4.65;;;5.60;99.90;;;;;;5096463;28;20379;-34
2023/05/03 01:01:17;;;;;;;7.95;4.05;;;5.60;99.90;;;;;;5096225;28;20169;-33
2023/05/03 01:03:45;;;;;;;8.25;4.57;;;5.50;99.90;;;;;;5096316;28;20094;-37
2023/05/03 01:06:26;;;;;;;5.80;4.00;;;5.50;99.90;;;;;;5082502;28;20067;-35
2023/05/03 01:09:15;;;;;;;5.70;3.67;;;5.40;99.90;;;;;;5111487;27;20077;-34
2023/05/03 01:11:50;;;;;;;5.60;3.80;;;5.40;99.90;;;;;;5096086;28;20063;-38
2023/05/03 01:14:40;;;;;;;6.35;4.20;;;5.30;99.90;;;;;;5095790;28;20156;-37
2023/05/03 01:17:11;;;;;;;10.95;4.15;;;5.30;99.90;;;;;;5095945;28;20044;-36
2023/05/03 01:19:41;;;;;;;9.20;4.22;;;5.20;99.90;;;;;;5094728;28;20157;-39
2023/05/03 01:22:34;;;;;;;7.63;4.15;;;5.20;99.90;;;;;;5095318;28;20047;-36
2023/05/03 01:25:09;;;;;;;7.20;3.97;;;5.20;99.90;;;;;;5096219;28;20055;-33
2023/05/03 01:27:35;;;;;;;10.32;4.68;;;5.10;99.90;;;;;;5096445;28;20057;-36
2023/05/03 01:30:06;;;;;;;7.50;4.00;;;5.10;99.90;;;;;;5095080;28;20091;-34
2023/05/03 01:32:42;;;;;;;6.22;4.43;;;5.10;99.90;;;;;;5095494;28;20402;-34
2023/05/03 01:35:19;;;;;;;5.75;4.22;;;5.10;99.90;;;;;;5089423;28;20134;-39
2023/05/03 01:37:47;;;;;;;4.88;3.30;;;5.00;99.90;;;;;;5096480;28;20505;-35
2023/05/03 01:40:15;;;;;;;7.00;4.20;;;4.90;99.90;;;;;;5095304;28;20112;-40
2023/05/03 01:42:42;;;;;;;4.15;3.03;;;4.90;99.90;;;;;;5094851;28;20095;-37
2023/05/03 01:45:09;;;;;;;4.93;3.25;;;4.90;99.90;;;;;;5093179;28;20260;-37
2023/05/03 01:47:34;;;;;;;4.82;3.50;;;4.90;99.90;;;;;;5094103;28;20063;-37
2023/05/03 01:50:00;;;;;;;6.93;4.05;;;4.90;99.90;;;;;;5094492;28;20046;-33
2023/05/03 01:52:26;;;;;;;4.53;3.75;;;4.90;99.90;;;;;;5087323;28;20116;-36
2023/05/03 01:54:52;;;;;;;4.85;4.32;;;4.80;99.90;;;;;;5095374;28;20047;-36
2023/05/03 01:57:17;;;;;;;6.35;4.63;;;4.80;99.90;;;;;;5095782;28;20398;-36
2023/05/03 01:59:43;;;;;;;4.78;4.10;;;4.70;99.90;;;;;;5094737;28;20152;-37
2023/05/03 02:02:09;;;;;;;7.25;4.65;;;4.70;99.90;;;;;;5081540;28;20055;-35
2023/05/03 02:04:34;;;;;;;5.75;4.15;;;4.70;99.90;;;;;;5076323;28;20108;-37
2023/05/03 02:07:00;;;;;;;9.88;4.75;;;4.60;99.90;;;;;;5093137;28;20047;-34
2023/05/03 02:09:26;;;;;;;7.82;4.53;;;4.60;99.90;;;;;;5095017;28;20186;-34
2023/05/03 02:11:51;;;;;;;6.70;4.25;;;4.60;99.90;;;;;;5094273;28;20090;-36
2023/05/03 02:14:17;;;;;;;7.13;4.50;;;4.60;99.90;;;;;;5094866;28;20058;-34
2023/05/03 02:16:42;;;;;;;7.95;4.93;;;4.60;99.90;;;;;;5095700;28;20047;-35
2023/05/03 02:19:09;;;;;;;4.65;4.25;;;4.50;99.90;;;;;;5095109;28;20046;-36
2023/05/03 02:21:35;;;;;;;7.47;4.18;;;4.50;99.90;;;;;;5076912;28;20056;-37
2023/05/03 02:24:01;;;;;;;7.93;4.57;;;4.50;99.90;;;;;;5094711;28;20054;-33
2023/05/03 02:26:27;;;;;;;6.25;4.05;;;4.50;99.90;;;;;;5095552;28;20055;-33
2023/05/03 02:28:54;;;;;;;5.20;4.45;;;4.50;99.90;;;;;;5094395;28;20048;-37
2023/05/03 02:31:20;;;;;;;6.95;4.70;;;4.50;99.90;;;;;;5095084;28;20059;-37
2023/05/03 02:33:46;;;;;;;6.22;4.78;;;4.60;99.90;;;;;;5093767;28;20409;-39
2023/05/03 02:36:12;;;;;;;6.82;4.32;;;4.60;99.90;;;;;;5110412;28;20050;-36
2023/05/03 02:38:37;;;;;;;7.63;4.68;;;4.60;99.90;;;;;;5075459;28;20554;-39
2023/05/03 02:41:03;;;;;;;6.88;4.38;;;4.60;99.90;;;;;;5110217;28;20060;-38
2023/05/03 02:43:29;;;;;;;6.93;4.10;;;4.60;99.90;;;;;;5093637;28;20047;-38
2023/05/03 02:45:54;;;;;;;6.82;3.80;;;4.50;99.90;;;;;;5095373;28;20130;-36
2023/05/03 02:48:20;;;;;;;3.80;3.50;;;4.50;99.90;;;;;;5093936;28;20071;-36
2023/05/03 02:50:46;;;;;;;6.53;4.30;;;4.40;99.90;;;;;;5094678;28;20060;-36
2023/05/03 02:53:11;;;;;;;6.18;4.45;;;4.40;99.90;;;;;;5093287;28;20050;-36
2023/05/03 02:55:37;;;;;;;5.15;3.92;;;4.30;99.90;;;;;;5098158;28;20071;-35
2023/05/03 02:58:02;;;;;;;4.80;4.00;;;4.30;99.90;;;;;;5089587;28;20051;-36
2023/05/03 03:00:28;;;;;;;6.63;4.03;;;4.30;99.90;;;;;;5090349;28;20044;-40
2023/05/03 03:02:54;;;;;;;5.78;4.10;;;4.30;99.90;;;;;;5092822;28;20517;-37
2023/05/03 03:05:19;;;;;;;6.68;5.40;;;4.30;99.90;;;;;;5097834;28;20409;-35
2023/05/03 03:07:45;;;;;;;6.43;4.70;;;4.30;99.90;;;;;;5096847;28;20450;-39
2023/05/03 03:10:11;;;;;;;6.07;4.38;;;4.30;99.90;;;;;;5098154;28;20047;-33
2023/05/03 03:12:37;;;;;;;4.93;4.35;;;4.30;99.90;;;;;;5078291;28;20450;-37
2023/05/03 03:15:03;;;;;;;5.43;4.07;;;4.40;99.90;;;;;;5097906;28;20626;-33
2023/05/03 03:17:30;;;;;;;5.32;4.13;;;4.40;99.90;;;;;;5098070;28;20047;-36
2023/05/03 03:19:57;;;;;;;5.88;4.00;;;4.40;99.90;;;;;;5098083;28;20396;-35
2023/05/03 03:22:24;;;;;;;6.18;4.57;;;4.50;99.90;;;;;;5096430;28;20048;-36
2023/05/03 03:24:50;;;;;;;5.68;4.25;;;4.50;99.90;;;;;;5078774;28;20591;-36
2023/05/03 03:27:15;;;;;;;6.68;4.38;;;4.50;99.90;;;;;;5097348;28;20214;-37
2023/05/03 03:29:41;;;;;;;6.25;4.25;;;4.50;99.90;;;;;;5097245;28;20055;-33
2023/05/03 03:32:07;;;;;;;7.32;4.82;;;4.60;99.90;;;;;;5096782;28;20099;-37
2023/05/03 03:34:32;;;;;;;6.28;4.75;;;4.60;99.90;;;;;;5097822;28;20097;-34
2023/05/03 03:36:58;;;;;;;8.70;4.70;;;4.60;99.90;;;;;;5085456;28;20047;-40
2023/05/03 03:39:24;;;;;;;7.22;4.55;;;4.70;99.90;;;;;;5097778;28;20436;-35
2023/05/03 03:41:49;;;;;;;6.13;4.60;;;4.70;99.90;;;;;;5096942;28;20213;-38
2023/05/03 03:44:15;;;;;;;5.03;4.53;;;4.70;99.90;;;;;;5096722;28;20490;-35
2023/05/03 03:46:41;;;;;;;8.02;4.88;;;4.80;99.90;;;;;;5097464;28;20121;-33
2023/05/03 03:49:07;;;;;;;7.72;4.72;;;4.80;99.90;;;;;;5096377;28;20039;-37
2023/05/03 03:51:32;;;;;;;10.63;4.95;;;4.80;99.90;;;;;;5096511;28;20349;-39
2023/05/03 03:53:59;;;;;;;9.25;5.43;;;4.90;99.90;;;;;;5096766;28;20477;-39
2023/05/03 03:56:25;;;;;;;8.70;5.18;;;4.80;99.90;;;;;;5096904;28;20055;-34
2023/05/03 03:58:50;;;;;;;5.88;5.28;;;4.90;99.90;;;;;;5095269;28;20052;-34
2023/05/03 04:01:16;;;;;;;8.07;5.07;;;5.00;99.90;;;;;;5094168;28;20397;-35
2023/05/03 04:03:45;;;;;;;5.53;4.80;;;5.00;99.90;;;;;;5095348;28;20498;-36
2023/05/03 04:06:11;;;;;;;9.55;5.07;;;5.00;99.90;;;;;;5094318;28;20044;-36
2023/05/03 04:08:36;;;;;;;7.28;5.43;;;5.10;99.90;;;;;;5096161;28;20047;-35
2023/05/03 04:11:08;;;;;;;9.60;5.05;;;5.10;99.90;;;;;;5095215;28;20062;-37
2023/05/03 04:13:33;;;;;;;11.20;5.70;;;5.20;99.90;;;;;;5095911;28;20410;-37
2023/05/03 04:16:00;;;;;;;7.13;5.13;;;5.20;99.90;;;;;;5096695;28;20043;-34
2023/05/03 04:18:25;;;;;;;6.95;4.90;;;5.20;99.90;;;;;;5096644;28;20480;-34
2023/05/03 04:20:51;;;;;;;8.18;4.88;;;5.30;99.90;;;;;;5096417;28;20417;-33
2023/05/03 04:23:17;;;;;;;6.53;5.50;;;5.30;99.90;;;;;;5096542;28;20047;-34
2023/05/03 04:25:45;;;;;;;10.25;5.50;;;5.40;99.90;;;;;;5095632;28;20051;-36
2023/05/03 04:28:14;;;;;;;5.97;5.35;;;5.40;99.90;;;;;;5096577;28;20058;-37
2023/05/03 04:30:42;;;;;;;7.97;5.15;;;5.40;99.90;;;;;;5066190;28;20055;-34
2023/05/03 04:33:08;;;;;;;6.78;4.90;;;5.40;99.90;;;;;;5095941;28;20100;-35
2023/05/03 04:35:34;;;;;;;6.75;4.82;;;5.50;99.90;;;;;;5085398;28;20048;-36
2023/05/03 04:38:01;;;;;;;7.90;4.82;;;5.50;99.90;;;;;;5096027;28;20054;-36
2023/05/03 04:40:28;;;;;;;9.75;6.72;;;5.50;99.90;;;;;;5093182;28;20070;-38
2023/05/03 04:42:54;;;;;;;8.05;5.75;;;5.60;99.90;;;;;;5096523;28;20046;-39
2023/05/03 04:45:20;;;;;;;9.38;6.05;;;5.60;99.90;;;;;;5091928;28;20047;-36
2023/05/03 04:47:46;;;;;;;12.18;6.50;;;5.60;99.90;;;;;;5095786;28;20051;-38
2023/05/03 04:50:12;;;;;;;9.15;6.18;;;5.70;99.90;;;;;;5086468;28;20228;-37
2023/05/03 04:52:38;;;;;;;10.15;5.72;;;5.70;99.90;;;;;;5095831;28;20576;-36
2023/05/03 04:55:04;;;;;;;10.63;7.22;;;5.80;99.90;;;;;;5112032;27;20572;-39
2023/05/03 04:57:31;;;;;;;9.63;6.90;;;5.80;99.90;;;;;;5112255;27;20047;-38
2023/05/03 04:59:57;;;;;;;11.40;6.35;;;6.00;99.90;;;;;;5091425;28;20094;-36
2023/05/03 05:02:23;;;;;;;6.80;5.53;;;6.00;99.90;;;;;;5095878;28;20054;-33
2023/05/03 05:04:48;;;;;;;8.38;6.25;;;6.10;99.90;;;;;;5094719;28;20834;-38
2023/05/03 05:07:15;;;;;;;10.70;5.85;;;6.20;99.90;;;;;;5095707;28;20035;-39
2023/05/03 05:09:40;;;;;;;7.05;5.45;;;6.30;99.90;;;;;;5094619;28;20053;-34
2023/05/03 05:12:06;;;;;;;7.47;5.60;;;6.40;99.90;;;;;;5094960;28;20044;-39
2023/05/03 05:14:32;;;;;;;9.43;6.03;;;6.40;99.90;;;;;;5095332;28;20475;-34
2023/05/03 05:16:58;;;;;;;10.32;6.03;;;6.50;99.90;;;;;;5096076;28;20616;-35
2023/05/03 05:19:24;;;;;;;6.57;4.30;;;6.60;99.90;;;;;;5090393;28;20058;-35
2023/05/03 05:21:51;;;;;;;6.35;5.03;;;6.70;99.90;;;;;;5095147;28;20039;-37
2023/05/03 05:24:17;;;;;;;8.73;5.53;;;6.80;99.90;;;;;;5095320;28;20534;-33
2023/05/03 05:26:43;;;;;;;8.70;5.03;;;6.90;99.90;;;;;;5095452;28;20132;-36
2023/05/03 05:29:09;;;;;;;9.80;5.18;;;7.00;99.90;;;;;;5079454;28;20051;-37
2023/05/03 05:31:35;;;;;;;7.70;5.00;;;7.10;99.90;;;;;;5095054;28;20146;-36
2023/05/03 05:34:01;;;;;;;7.68;4.88;;;7.20;99.90;;;;;;5094300;28;20047;-35
2023/05/03 05:36:27;;;;;;;5.55;4.30;;;7.30;99.90;;;;;;5095361;28;20798;-34
2023/05/03 05:38:53;;;;;;;4.90;3.88;;;7.50;99.90;;;;;;5076721;28;20043;-34
2023/05/03 05:41:18;;;;;;;5.15;4.05;;;7.50;99.90;;;;;;5093059;28;20043;-40
2023/05/03 05:43:44;;;;;;;7.65;4.47;;;7.60;99.90;;;;;;5094529;28;20139;-35
2023/05/03 05:46:10;;;;;;;11.77;4.43;;;7.70;99.90;;;;;;5095165;28;20188;-39
2023/05/03 05:48:36;;;;;;;8.07;3.95;;;7.80;99.90;;;;;;5095034;28;20086;-40
2023/05/03 05:51:01;;;;;;;6.60;4.30;;;7.90;99.90;;;;;;5095364;28;20047;-37
2023/05/03 05:53:27;;;;;;;7.13;3.88;;;8.00;99.90;;;;;;5066399;28;20462;-35
2023/05/03 05:55:53;;;;;;;6.22;3.72;;;8.10;99.90;;;;;;5076469;28;20069;-40
2023/05/03 05:58:19;;;;;;;6.57;3.88;;;8.20;99.90;;;;;;5094126;28;20071;-37
2023/05/03 06:00:47;;;;;;;6.07;3.63;;;8.30;99.90;;;;;;5094869;28;20945;-34
2023/05/03 06:03:14;;;;;;;6.18;3.70;;;8.50;99.90;;;;;;5094586;28;20094;-38
2023/05/03 06:05:40;;;;;;;4.40;3.50;;;8.70;99.90;;;;;;5110540;27;20567;-36
2023/05/03 06:08:06;;;;;;;7.00;3.55;;;8.80;99.90;;;;;;5093448;28;20142;-40
2023/05/03 06:10:32;;;;;;;6.82;2.95;;;9.10;99.90;;;;;;5076152;28;20040;-36
2023/05/03 06:12:58;;;;;;;7.30;2.90;;;9.20;99.90;;;;;;5087872;28;20152;-36
2023/05/03 06:15:24;;;;;;;6.75;3.38;;;9.30;99.90;;;;;;5083710;28;20533;-39
2023/05/03 06:17:50;;;;;;;4.32;3.15;;;9.40;99.90;;;;;;5084602;28;20055;-40
2023/05/03 06:20:17;;;;;;;5.63;2.88;;;9.60;99.90;;;;;;5094069;28;20048;-42
2023/05/03 06:22:42;;;;;;;7.55;3.33;;;9.70;99.90;;;;;;5093268;28;20044;-40
2023/05/03 06:25:09;;;;;;;4.93;2.97;;;9.90;99.90;;;;;;5094109;28;20054;-40
2023/05/03 06:27:37;;;;;;;10.13;3.17;;;10.10;99.90;;;;;;5094577;28;20104;-35
2023/05/03 06:30:03;;;;;;;7.10;3.00;;;10.30;99.90;;;;;;5098413;28;20470;-38
2023/05/03 06:32:28;;;;;;;6.05;1.80;;;10.50;99.90;;;;;;5098332;28;20553;-40
2023/05/03 06:34:54;;;;;;;3.78;1.73;;;10.80;99.90;;;;;;5098881;28;20046;-36
2023/05/03 06:37:21;;;;;;;5.82;1.70;;;11.00;99.90;;;;;;5098350;28;20049;-41
2023/05/03 06:39:49;;;;;;;2.60;1.52;;;11.00;99.90;;;;;;5097987;28;20567;-37
2023/05/03 06:42:15;;;;;;;3.75;1.40;;;11.10;99.90;;;;;;5097972;28;20112;-35
2023/05/03 06:44:41;;;;;;;4.35;1.25;;;11.00;99.90;;;;;;5098579;28;20477;-35
2023/05/03 06:47:07;;;;;;;4.30;1.50;;;11.00;99.90;;;;;;5098150;28;20452;-39
2023/05/03 06:49:32;;;;;;;5.53;1.40;;;11.00;99.90;;;;;;5097568;28;20039;-38
2023/05/03 06:51:58;;;;;;;3.60;1.40;;;11.10;99.90;;;;;;5097022;28;20980;-42
2023/05/03 06:54:24;;;;;;;4.07;1.38;;;11.20;99.90;;;;;;5098141;28;20092;-40
2023/05/03 06:56:49;;;;;;;4.93;1.45;;;11.30;99.90;;;;;;5097306;28;20055;-36
2023/05/03 06:59:15;;;;;;;3.97;1.50;;;11.40;99.90;;;;;;5080585;28;20036;-39
2023/05/03 07:01:41;;;;;;;7.20;1.73;;;11.50;99.90;;;;;;5096794;28;20051;-34
2023/05/03 07:04:07;;;;;;;5.13;1.40;;;11.70;99.90;;;;;;5097570;28;20557;-39
2023/05/03 07:06:32;;;;;;;4.13;1.40;;;12.00;99.90;;;;;;5098316;28;20512;-40
2023/05/03 07:08:58;;;;;;;6.00;1.90;;;12.40;99.90;;;;;;5098763;28;20036;-39
2023/05/03 07:11:24;;;;;;;4.20;1.58;;;12.40;99.90;;;;;;5098323;28;20499;-38
2023/05/03 07:13:53;;;;;;;4.53;1.58;;;12.80;99.90;;;;;;5097401;28;20043;-35
2023/05/03 07:16:19;;;;;;;3.10;1.45;;;12.80;99.90;;;;;;5097438;28;20542;-38
2023/05/03 07:18:46;;;;;;;4.28;1.45;;;12.80;99.90;;;;;;5113039;27;20093;-38
2023/05/03 07:21:14;;;;;;;4.55;1.65;;;12.70;99.90;;;;;;5097102;28;20046;-40
2023/05/03 07:23:40;;;;;;;5.28;1.80;;;12.60;99.90;;;;;;5096745;28;20150;-39
2023/05/03 07:26:06;;;;;;;5.63;1.52;;;12.70;99.90;;;;;;5098587;28;20570;-40
2023/05/03 07:28:32;;;;;;;4.10;1.23;;;13.00;99.90;;;;;;5098006;28;20044;-38
2023/05/03 07:30:58;;;;;;;3.13;1.23;;;13.20;99.90;;;;;;5099106;28;20058;-38
2023/05/03 07:33:24;;;;;;;3.53;1.45;;;13.10;99.90;;;;;;5079133;28;20055;-42
2023/05/03 07:35:50;;;;;;;3.05;1.30;;;12.80;99.90;;;;;;5084390;28;20047;-41
2023/05/03 07:38:16;;;;;;;9.73;2.28;;;12.80;99.90;;;;;;5096921;28;20482;-42
2023/05/03 07:40:42;;;;;;;3.47;1.20;;;12.80;99.90;;;;;;5097137;28;20043;-36
2023/05/03 07:43:11;;;;;;;5.85;1.73;;;12.70;99.90;;;;;;5097071;28;20506;-38
2023/05/03 07:45:37;;;;;;;3.63;1.63;;;12.70;99.90;;;;;;5097035;28;20086;-37
2023/05/03 07:48:05;;;;;;;4.57;1.50;;;12.80;99.90;;;;;;5112652;27;20402;-41
2023/05/03 07:50:31;;;;;;;4.53;1.50;;;12.80;99.90;;;;;;5096685;28;20048;-38
2023/05/03 07:52:56;;;;;;;2.65;1.55;;;12.90;99.90;;;;;;5096683;28;20816;-36
2023/05/03 07:55:23;;;;;;;4.35;2.00;;;12.70;99.90;;;;;;5095320;28;20108;-37
2023/05/03 07:57:49;;;;;;;5.35;2.25;;;12.60;99.90;;;;;;5096720;28;20043;-39
2023/05/03 08:00:16;;;;;;;4.55;1.70;;;12.50;99.90;;;;;;5096848;28;20058;-39
2023/05/03 08:02:42;;;;;;;4.85;1.40;;;12.30;99.90;;;;;;5096533;28;20123;-35
2023/05/03 08:05:12;;;;;;;3.67;1.60;;;12.10;99.90;;;;;;5097653;28;20061;-41
2023/05/03 08:07:38;;;;;;;2.30;1.10;;;12.00;99.90;;;;;;5094454;28;20039;-35
2023/05/03 08:10:05;;;;;;;2.97;1.08;;;11.90;99.90;;;;;;5097229;28;20048;-41
2023/05/03 08:12:30;;;;;;;4.05;1.40;;;11.80;99.90;;;;;;5095211;28;20058;-39
2023/05/03 08:14:56;;;;;;;5.20;1.98;;;11.80;99.90;;;;;;5095579;28;20048;-41
2023/05/03 08:17:22;;;;;;;6.68;1.98;;;11.80;99.90;;;;;;5095822;28;20086;-39
2023/05/03 08:19:48;;;;;;;5.50;1.40;;;11.80;99.90;;;;;;5096736;28;20039;-40
2023/05/03 08:22:15;;;;;;;5.15;1.40;;;11.90;99.90;;;;;;5095953;28;20418;-40
2023/05/03 08:24:41;;;;;;;4.25;1.60;;;11.90;99.90;;;;;;5097173;28;20295;-37
2023/05/03 08:27:08;;;;;;;3.08;1.20;;;11.90;99.90;;;;;;5096795;28;20043;-36
2023/05/03 08:29:37;;;;;;;3.83;1.70;;;11.80;99.90;;;;;;5111233;27;20509;-42
2023/05/03 08:32:03;;;;;;;5.25;1.52;;;11.70;99.90;;;;;;5104354;27;20068;-39
2023/05/03 08:34:29;;;;;;;4.63;1.55;;;11.80;99.90;;;;;;5112979;27;20158;-41
2023/05/03 08:36:58;;;;;;;3.33;1.60;;;11.90;99.90;;;;;;5109800;27;20043;-35
2023/05/03 08:39:25;;;;;;;4.03;1.95;;;11.80;99.90;;;;;;5102330;27;20047;-40
2023/05/03 08:41:52;;;;;;;5.22;1.52;;;11.80;99.90;;;;;;5099037;27;20054;-37
2023/05/03 08:44:22;;;;;;;3.55;1.77;;;11.90;99.90;;;;;;5113162;27;20051;-39
2023/05/03 08:46:51;;;;;;;2.15;1.20;;;12.00;99.90;;;;;;5079661;27;20552;-38
2023/05/03 08:49:17;;;;;;;6.13;1.60;;;12.00;99.90;;;;;;5102019;27;20039;-37
2023/05/03 08:51:47;;;;;;;4.47;1.25;;;12.20;99.90;;;;;;5080673;27;20131;-36
2023/05/03 08:54:14;;;;;;;3.92;1.50;;;12.20;99.90;;;;;;5113081;27;20070;-39
2023/05/03 08:56:44;;;;;;;5.80;1.20;;;12.20;99.90;;;;;;5063766;27;20158;-38
2023/05/03 08:59:10;;;;;;;2.97;1.50;;;12.10;99.90;;;;;;5113054;27;20039;-43
2023/05/03 09:01:37;;;;;;;5.53;1.50;;;12.10;99.90;;;;;;5099313;27;20057;-40
2023/05/03 09:04:04;;;;;;;7.18;1.95;;;12.20;99.90;;;;;;5095268;27;20055;-40
2023/05/03 09:06:32;;;;;;;5.20;1.38;;;12.20;99.90;;;;;;5094803;27;20099;-38
2023/05/03 09:08:58;;;;;;;3.33;1.60;;;12.40;99.90;;;;;;5104007;27;20128;-38
2023/05/03 09:11:28;;;;;;;4.47;1.40;;;12.50;99.90;;;;;;5093634;27;20075;-38
2023/05/03 09:14:06;;;;;;;3.10;1.50;;;12.50;99.90;;;;;;5095590;27;20126;-39
2023/05/03 09:16:32;;;;;;;2.80;1.33;;;12.50;99.90;;;;;;5072826;28;20483;-39
2023/05/03 09:18:59;;;;;;;5.32;1.60;;;12.40;99.90;;;;;;5104019;27;20038;-39
2023/05/03 09:21:25;;;;;;;4.13;1.50;;;12.60;99.90;;;;;;5101154;27;20663;-35
2023/05/03 09:23:51;;;;;;;3.33;1.30;;;12.70;99.90;;;;;;5106455;27;20039;-40
2023/05/03 09:26:34;;;;;;;3.75;1.40;;;12.60;99.90;;;;;;5113656;27;20064;-39
2023/05/03 09:29:03;;;;;;;6.07;1.40;;;12.70;99.90;;;;;;5091631;28;20048;-40
2023/05/03 09:31:30;;;;;;;5.45;1.55;;;12.80;99.90;;;;;;5108910;27;20051;-39
2023/05/03 09:33:57;;;;;;;3.95;1.42;;;12.70;99.90;;;;;;5108173;27;20044;-36
2023/05/03 09:36:23;;;;;;;2.92;1.38;;;12.70;99.90;;;;;;5092625;28;20531;-41
2023/05/03 09:38:50;;;;;;;4.53;1.48;;;12.50;99.90;;;;;;5104591;27;20551;-39
2023/05/03 09:41:26;;;;;;;3.53;1.33;;;12.40;99.90;;;;;;5110236;27;20047;-38
2023/05/03 09:43:54;;;;;;;2.97;1.50;;;12.60;99.90;;;;;;5101676;27;20039;-38
2023/05/03 09:46:20;;;;;;;4.22;1.70;;;12.60;99.90;;;;;;5075048;27;20050;-36
2023/05/03 09:48:48;;;;;;;5.95;1.75;;;12.70;99.90;;;;;;5098119;27;20510;-39
2023/05/03 09:51:13;;;;;;;5.78;1.95;;;12.80;99.90;;;;;;5079817;28;20047;-39
2023/05/03 09:53:40;;;;;;;4.63;1.80;;;12.90;99.90;;;;;;5104177;27;20099;-37
2023/05/03 09:56:11;;;;;;;6.38;2.58;;;13.00;99.90;;;;;;5109078;27;20046;-43
2023/05/03 09:58:37;;;;;;;2.25;1.50;;;12.90;99.90;;;;;;5074292;28;20387;-40
2023/05/03 10:01:03;;;;;;;2.50;1.40;;;13.20;99.90;;;;;;5103702;27;20066;-40
2023/05/03 10:03:42;;;;;;;5.30;1.90;;;13.40;99.90;;;;;;5074289;28;20737;-41
2023/05/03 10:06:43;;;;;;;2.95;2.05;;;13.50;99.90;;;;;;5107573;27;20054;-36
2023/05/03 10:09:20;;;;;;;6.20;1.52;;;13.90;99.90;;;;;;5026081;28;20063;-40
2023/05/03 10:11:52;;;;;;;2.40;1.33;;;14.20;99.90;;;;;;5026519;28;20084;-35
2023/05/03 10:14:21;;;;;;;3.03;1.73;;;14.30;99.90;;;;;;5026833;28;20479;-43
2023/05/03 10:16:52;;;;;;;3.88;1.70;;;14.20;99.90;;;;;;5027503;28;20059;-36
2023/05/03 10:19:39;;;;;;;4.75;1.90;;;14.20;99.90;;;;;;5022809;28;20636;-41
2023/05/03 10:22:07;;;;;;;5.40;1.92;;;14.10;99.90;;;;;;4993631;28;20196;-41
2023/05/03 10:24:34;;;;;;;3.25;2.20;;;14.00;99.90;;;;;;5040434;28;20603;-37
2023/05/03 10:27:00;;;;;;;3.05;1.55;;;14.10;99.90;;;;;;5026034;28;20149;-42
2023/05/03 10:29:36;;;;;;;5.13;1.95;;;14.30;99.90;;;;;;5011194;28;20159;-39
2023/05/03 10:32:24;;;;;;;5.22;1.50;;;14.00;99.90;;;;;;5028060;28;20045;-35
2023/05/03 10:34:58;;;;;;;4.68;1.63;;;14.30;99.90;;;;;;5028516;28;20060;-42
2023/05/03 10:37:26;;;;;;;5.05;1.45;;;14.40;99.90;;;;;;5040369;28;20056;-41
2023/05/03 10:39:55;;;;;;;5.28;2.10;;;14.40;99.90;;;;;;5028819;28;20075;-38
2023/05/03 10:42:24;;;;;;;2.80;1.50;;;14.70;99.90;;;;;;5022242;28;20396;-42
2023/05/03 10:44:52;;;;;;;4.40;1.58;;;14.90;98.50;;;;;;5043115;28;20049;-39
2023/05/03 10:47:23;;;;;;;5.40;2.10;;;15.10;99.10;;;;;;5072780;28;20319;-41
2023/05/03 10:50:14;;;;;;;2.35;1.27;;;15.00;98.90;;;;;;5104975;28;20047;-39
2023/05/03 10:52:39;;;;;;;3.00;1.73;;;15.10;99.70;;;;;;5080299;28;20047;-41
2023/05/03 10:55:19;;;;;;;6.55;1.90;;;14.90;99.90;;;;;;5111636;28;20518;-38
2023/05/03 10:57:47;;;;;;;6.53;1.85;;;14.50;99.90;;;;;;5111756;28;20039;-36
2023/05/03 11:00:20;;;;;;;4.30;1.73;;;13.90;99.90;;;;;;5074820;28;20147;-37
2023/05/03 11:03:12;;;;;;;4.72;1.55;;;13.60;99.90;;;;;;5091431;28;20509;-36
2023/05/03 11:05:38;;;;;;;4.10;1.73;;;13.80;99.90;;;;;;5103339;28;20046;-42
2023/05/03 11:08:24;;;;;;;4.10;2.10;;;13.70;99.90;;;;;;5102317;28;20557;-38
2023/05/03 11:10:58;;;;;;;4.85;1.70;;;13.60;99.90;;;;;;5099177;28;20482;-36
2023/05/03 11:13:24;;;;;;;5.20;1.98;;;13.70;99.90;;;;;;5093247;28;20103;-45
2023/05/03 11:15:51;;;;;;;4.57;2.22;;;14.00;99.90;;;;;;5104405;27;20474;-39
2023/05/03 11:18:17;;;;;;;5.22;2.50;;;14.10;99.90;;;;;;5104905;27;20044;-34
2023/05/03 11:20:43;;;;;;;3.58;2.00;;;13.90;99.80;;;;;;5097429;27;20672;-42
2023/05/03 11:23:11;;;;;;;3.30;1.60;;;14.00;99.90;;;;;;5101925;27;20451;-43
2023/05/03 11:25:37;;;;;;;4.13;2.00;;;13.90;99.90;;;;;;5104203;27;20447;-38
2023/05/03 11:28:03;;;;;;;6.35;2.38;;;13.90;99.90;;;;;;5105910;27;20484;-35
2023/05/03 11:30:33;;;;;;;3.60;1.88;;;13.40;99.90;;;;;;5105192;27;20055;-37
2023/05/03 11:33:00;;;;;;;4.72;2.00;;;13.40;99.90;;;;;;5086334;28;20047;-38
2023/05/03 11:35:28;;;;;;;5.20;1.90;;;13.60;99.90;;;;;;5111581;27;20040;-39
2023/05/03 11:37:54;;;;;;;5.20;2.00;;;13.80;99.90;;;;;;5114864;27;20078;-39
2023/05/03 11:40:20;;;;;;;5.40;2.20;;;14.00;99.90;;;;;;5099428;27;20210;-38
2023/05/03 11:42:53;;;;;;;4.65;2.05;;;14.20;99.90;;;;;;5113573;27;20046;-40
2023/05/03 11:45:44;;;;;;;12.55;2.80;;;14.20;99.90;;;;;;5080246;27;21060;-41
2023/05/03 11:48:11;;;;;;;3.72;1.98;;;14.00;99.90;;;;;;5099190;27;20043;-38
2023/05/03 11:50:54;;;;;;;7.68;2.28;;;13.80;99.90;;;;;;5105528;27;20040;-40
2023/05/03 11:53:20;;;;;;;3.40;2.10;;;13.70;99.90;;;;;;5099066;27;20404;-39
2023/05/03 11:55:48;;;;;;;4.30;2.63;;;13.80;99.90;;;;;;5103323;27;20047;-38
2023/05/03 11:58:22;;;;;;;8.13;2.22;;;13.60;99.90;;;;;;5074169;27;20199;-39
2023/05/03 12:00:50;;;;;;;6.00;2.05;;;13.60;99.90;;;;;;5101956;27;20067;-38
2023/05/03 12:03:17;;;;;;;5.00;2.70;;;13.70;99.90;;;;;;5109361;27;20074;-40
2023/05/03 12:05:44;;;;;;;3.72;2.42;;;13.40;99.90;;;;;;5097535;27;20067;-40
2023/05/03 12:08:10;;;;;;;4.20;2.22;;;13.70;99.90;;;;;;5109673;27;20389;-38
2023/05/03 12:10:36;;;;;;;6.85;2.22;;;13.90;99.90;;;;;;5104286;27;20465;-40
2023/05/03 12:13:02;;;;;;;7.05;2.25;;;13.80;99.90;;;;;;5107928;27;20043;-36
2023/05/03 12:15:33;;;;;;;4.70;2.20;;;13.80;99.90;;;;;;5095003;28;20559;-36
2023/05/03 12:18:00;;;;;;;3.17;2.00;;;13.90;99.90;;;;;;5103460;27;20032;-43
2023/05/03 12:20:29;;;;;;;10.60;3.00;;;14.00;99.90;;;;;;5079867;27;20066;-37
2023/05/03 12:23:01;;;;;;;4.20;2.30;;;13.80;99.90;;;;;;5099232;27;20524;-39
2023/05/03 12:25:28;;;;;;;5.38;2.60;;;13.80;99.90;;;;;;5112456;27;20523;-34
2023/05/03 12:27:56;;;;;;;6.72;2.50;;;13.70;99.90;;;;;;5095242;27;20054;-37
2023/05/03 12:30:22;;;;;;;4.78;2.80;;;13.70;99.90;;;;;;5082648;28;20075;-36
2023/05/03 12:32:49;;;;;;;4.53;2.10;;;13.70;99.90;;;;;;5113096;27;20054;-39
2023/05/03 12:35:15;;;;;;;5.05;2.40;;;13.70;99.90;;;;;;5110099;27;20078;-39
2023/05/03 12:37:41;;;;;;;5.50;2.65;;;13.60;99.90;;;;;;5112357;27;20441;-37
2023/05/03 12:40:07;;;;;;;4.53;2.28;;;13.40;99.90;;;;;;5104631;27;20376;-41
2023/05/03 12:42:33;;;;;;;5.47;2.53;;;13.30;99.90;;;;;;5100225;27;20039;-44
2023/05/03 12:44:59;;;;;;;3.90;2.30;;;13.30;99.90;;;;;;5110735;27;20031;-43
2023/05/03 12:47:25;;;;;;;8.18;2.65;;;13.50;99.90;;;;;;5058333;28;20324;-43
2023/05/03 12:49:52;;;;;;;6.20;2.40;;;13.40;99.90;;;;;;5094719;27;20051;-39
2023/05/03 12:52:19;;;;;;;4.78;2.30;;;13.60;99.90;;;;;;5101595;27;20054;-42